Latest Coastal Weather Observations for Carnarvon

IDW60701

Issued at 3:12 am WST Saturday 23 May 2015 (issued every 10 minutes, with the page automatically refreshed every 10 minutes)

About coastal observations | Map of coastal stations | Coastal observations for WA | Marine services | Other Formats
Station Details ID: 006011 Name: CARNARVON AIRPORT Lat: -24.89 Lon: 113.67 Height: 4.0 m
Data from the previous 72 hours. | See also: Recent months at Carnarvon
Date/Time
WST
Temp

°C
Wind Pressure Rain
since 9am
mm
Weather Cloud Vis
km
Sea
Height
m
Swell
Dir
 
Speed
knots
Gust
knots
hPa Trend Height
m
Period
s
Dir
23/03:00am 15.8 SE 5 5 1017.4 - 0.0 - - 10 - - - -
23/02:30am 15.7 SE 5 5 1017.4 - 0.0 - - 10 - - - -
23/02:00am 16.2 SSE 5 6 1017.5 - 0.0 - Partly cloudy 10 - - - -
23/01:30am 16.9 S 7 7 1017.4 - 0.0 - - 10 - - - -
23/01:00am 17.3 S 6 7 1017.4 - 0.0 - - 10 - - - -
23/12:30am 17.5 SSE 5 5 1017.3 - 0.0 - - 10 - - - -
23/12:00am 17.3 CALM 0 0 1017.4 - 0.0 - - 10 - - - -
 
Date/Time
WST
Temp

°C
Wind Pressure Rain
since 9am
mm
Weather Cloud Vis
km
Sea
Height
m
Swell
Dir
 
Speed
knots
Gust
knots
hPa Trend Height
m
Period
s
Dir
22/11:30pm 18.3 CALM 0 0 1017.8 - 0.0 - - 10 - - - -
22/11:00pm 18.1 CALM 0 1 1017.8 - 0.0 - - 10 - - - -
22/10:30pm 18.2 SSE 2 4 1017.8 - 0.0 - - 10 - - - -
22/10:00pm 19.0 SSW 5 5 1017.8 - 0.0 - - 10 - - - -
22/09:30pm 20.4 SW 5 5 1017.8 - 0.0 - - 10 - - - -
22/09:00pm 20.4 SW 5 6 1017.8 - 0.0 - - 10 - - - -
22/08:30pm 20.2 SW 5 6 1017.7 - 0.0 - - 10 - - - -
22/08:00pm 20.6 SW 6 7 1017.6 - 0.0 - - 10 - - - -
22/07:30pm 21.0 WSW 5 5 1017.6 - 0.0 - - 10 - - - -
22/07:00pm 21.3 WSW 5 6 1017.1 - 0.0 - - 10 - - - -
22/06:30pm 21.4 W 3 4 1016.7 - 0.0 - - 10 - - - -
22/06:00pm 21.5 WNW 4 5 1016.6 - 0.0 - - 10 - - - -
22/05:30pm 22.1 W 4 5 1016.3 - 0.0 - - 10 - - - -
22/05:00pm 22.6 WNW 5 7 1016.1 - 0.0 - - 10 - - - -
22/04:30pm 22.9 WNW 7 10 1016.2 - 0.0 - - 10 - - - -
22/04:00pm 23.3 WNW 7 9 1016.1 - 0.0 - Partly cloudy 10 - - - -
22/03:30pm 24.6 W 6 11 1016.2 - 0.0 - Partly cloudy 10 - - - -
22/03:00pm 24.4 WNW 7 11 1016.2 - 0.0 Fine Mostly cloudy 20 - - - -
22/02:30pm 23.9 WNW 8 10 1016.1 - 0.0 - - 10 - - - -
22/02:00pm 24.1 W 7 10 1016.3 - 0.0 - - 10 - - - -
22/01:30pm 24.6 WNW 6 10 1016.5 - 0.0 - - 10 - - - -
22/01:00pm 24.3 WSW 7 9 1016.7 - 0.0 - - 10 - - - -
22/12:30pm 24.7 WNW 5 8 1017.0 - 0.0 - Partly cloudy 10 - - - -
22/12:00pm 24.1 WNW 6 9 1017.6 - 0.0 - - 10 - - - -
22/11:30am 24.4 NW 7 11 1017.9 - 0.0 - Partly cloudy 10 - - - -
22/11:00am 24.4 NNE 5 8 1017.9 - 0.0 - - 10 - - - -
22/10:30am 23.5 N 5 8 1017.9 - 0.0 - Partly cloudy 10 - - - -
22/10:00am 22.4 NE 6 8 1018.2 - 0.0 - - 10 - - - -
22/09:30am 20.9 ENE 6 8 1018.0 - 0.0 - Partly cloudy 10 - - - -
22/09:00am 17.9 ENE 4 6 1017.7 - 0.0 Fine Mostly cloudy 12 - - - -
22/08:30am 16.8 ENE 5 7 1017.7 - 0.0 - - 10 - - - -
22/08:00am 15.7 ENE 5 7 1017.6 - 0.0 - - 10 - - - -
22/07:30am 14.4 ENE 5 6 1017.3 - 0.0 - - 10 - - - -
22/07:00am 13.2 ENE 6 6 1017.0 - 0.0 - - 10 - - - -
22/06:30am 13.0 ENE 6 7 1017.0 - 0.0 - - 10 - - - -
22/06:00am 13.7 ENE 5 6 1016.8 - 0.0 - - 10 - - - -
22/05:30am 13.5 ENE 4 5 1016.7 - 0.0 - - 10 - - - -
22/05:00am 14.1 ENE 5 6 1016.5 - 0.0 - - 10 - - - -
22/04:30am 13.5 ENE 5 6 1016.5 - 0.0 - - 10 - - - -
22/04:00am 13.1 ENE 4 5 1016.4 - 0.0 - - 10 - - - -
22/03:30am 14.1 ENE 4 6 1016.4 - 0.0 - - 10 - - - -
22/03:00am 13.7 ENE 3 5 1016.4 - 0.0 - - 10 - - - -
22/02:30am 16.1 SSW 6 6 1016.3 - 0.0 - - 10 - - - -
22/02:00am 16.6 SSW 6 7 1016.7 - 0.0 - - 10 - - - -
22/01:30am 15.2 S 3 4 1016.6 - 0.0 - - 10 - - - -
22/01:00am 16.5 SSW 5 6 1016.8 - 0.0 - - 10 - - - -
22/12:30am 18.0 SSW 6 7 1017.0 - 0.0 - - 10 - - - -
22/12:00am 18.7 SSW 8 9 1017.1 - 0.0 - - 10 - - - -
 
Date/Time
WST
Temp

°C
Wind Pressure Rain
since 9am
mm
Weather Cloud Vis
km
Sea
Height
m
Swell
Dir
 
Speed
knots
Gust
knots
hPa Trend Height
m
Period
s
Dir
21/11:30pm 18.8 SW 6 8 1017.4 - 0.0 - - 10 - - - -
21/11:00pm 18.6 SSW 7 9 1017.3 - 0.0 - - 10 - - - -
21/10:30pm 19.0 SSW 9 10 1017.4 - 0.0 - - 10 - - - -
21/10:00pm 18.7 SSW 8 10 1017.6 - 0.0 - - 10 - - - -
21/09:30pm 18.7 SSW 7 8 1017.6 - 0.0 - - 10 - - - -
21/09:00pm 18.7 SSW 7 8 1017.6 - 0.0 - - 10 - - - -
21/08:30pm 19.1 SW 7 7 1017.1 - 0.0 - - 10 - - - -
21/08:00pm 19.1 SW 7 8 1017.1 - 0.0 - - 10 - - - -
21/07:30pm 19.5 SW 6 7 1017.1 - 0.0 - - 10 - - - -
21/07:00pm 19.9 SW 7 8 1016.8 - 0.0 - - 10 - - - -
21/06:30pm 20.2 SW 7 9 1016.6 - 0.0 - - 10 - - - -
21/06:00pm 20.2 SW 7 8 1016.4 - 0.0 - - 10 - - - -
21/05:30pm 21.0 SW 7 10 1016.3 - 0.0 - - 10 - - - -
21/05:00pm 21.8 SW 9 12 1016.2 - 0.0 - - 10 - - - -
21/04:30pm 22.3 SW 10 13 1016.1 - 0.0 - - 10 - - - -
21/04:00pm 22.8 SW 10 13 1015.9 - 0.0 - - 10 - - - -
21/03:30pm 22.8 SSW 8 10 1015.8 - 0.0 - - 10 - - - -
21/03:00pm 22.8 SSW 8 9 1015.8 - 0.0 Fine Mostly clear 30 - - - -
21/02:30pm 22.6 SSW 8 9 1016.0 - 0.0 - - 10 - - - -
21/02:00pm 22.4 SSW 8 10 1016.2 - 0.0 - - 10 - - - -
21/01:30pm 22.5 SSW 10 12 1016.5 - 0.0 - - 10 - - - -
21/01:00pm 22.4 SSW 8 9 1016.8 - 0.0 - - 10 - - - -
21/12:30pm 22.2 SSW 9 11 1017.1 - 0.0 - - 10 - - - -
21/12:00pm 22.1 SSW 11 12 1017.5 - 0.0 - - 10 - - - -
21/11:30am 23.3 SSW 8 9 1017.6 - 0.0 - - 10 - - - -
21/11:00am 23.5 SSW 6 7 1017.8 - 0.0 - - 10 - - - -
21/10:30am 23.2 E 3 5 1018.2 - 0.0 - - 10 - - - -
21/10:00am 22.2 E 7 10 1018.3 - 0.0 - - 10 - - - -
21/09:30am 20.6 E 7 9 1018.2 - 0.0 - - 10 - - - -
21/09:00am 18.8 SE 7 9 1018.2 - 0.0 - - 10 - - - -
21/08:30am 16.7 ESE 5 7 1018.1 - 0.0 - - 10 - - - -
21/08:00am 14.5 ESE 5 5 1018.1 - 0.0 - - 10 - - - -
21/07:30am 12.1 SE 3 4 1018.0 - 0.0 - - 10 - - - -
21/07:00am 11.8 SE 5 5 1017.7 - 0.0 - - 10 - - - -
21/06:30am 12.2 SE 7 8 1017.4 - 0.0 - - 10 - - - -
21/06:00am 13.1 SSE 7 9 1017.2 - 0.0 - - 10 - - - -
21/05:30am 13.3 SE 8 9 1017.1 - 0.0 - - 10 - - - -
21/05:00am 13.8 SSE 8 9 1016.9 - 0.0 - - 10 - - - -
21/04:30am 14.2 SSE 8 9 1016.9 - 0.0 - - 10 - - - -
21/04:00am 14.4 SSE 7 8 1016.9 - 0.0 - - 10 - - - -
21/03:30am 14.9 SSE 7 9 1016.9 - 0.0 - - 10 - - - -
21/03:00am 14.9 SSE 6 7 1016.8 - 0.0 - - 10 - - - -
21/02:30am 15.1 SSE 6 7 1017.0 - 0.0 - - 10 - - - -
21/02:00am 15.9 SSE 6 7 1017.1 - 0.0 - - 10 - - - -
21/01:30am 17.1 S 7 8 1017.5 - 0.0 - - 10 - - - -
21/01:00am 17.3 S 8 9 1017.9 - 0.0 - - 10 - - - -
21/12:30am 16.5 S 7 8 1017.9 - 0.0 - - 10 - - - -
21/12:00am 17.1 S 7 8 1018.3 - 0.0 - - 10 - - - -
 
Date/Time
WST
Temp

°C
Wind Pressure Rain
since 9am
mm
Weather Cloud Vis
km
Sea
Height
m
Swell
Dir
 
Speed
knots
Gust
knots
hPa Trend Height
m
Period
s
Dir
20/11:30pm 17.8 S 7 8 1018.4 - 0.0 - - 10 - - - -
20/11:00pm 18.0 S 8 10 1018.7 - 0.0 - - 10 - - - -
20/10:30pm 18.2 S 8 10 1019.0 - 0.0 - - 10 - - - -
20/10:00pm 18.0 S 8 9 1019.2 - 0.0 - - 10 - - - -
20/09:30pm 18.3 S 9 10 1019.4 - 0.0 - - 10 - - - -
20/09:00pm 18.2 S 8 9 1019.5 - 0.0 - - 10 - - - -
20/08:30pm 18.6 S 8 10 1019.4 - 0.0 - - 10 - - - -
20/08:00pm 19.0 S 9 11 1019.1 - 0.0 - - 10 - - - -
20/07:30pm 19.3 S 9 11 1019.1 - 0.0 - - 10 - - - -
20/07:00pm 19.7 S 9 11 1019.0 - 0.0 - - 10 - - - -
20/06:30pm 20.2 S 11 14 1018.6 - 0.0 - - 10 - - - -
20/06:00pm 20.4 S 13 15 1018.4 - 0.0 - - 10 - - - -
20/05:30pm 20.9 S 13 17 1018.3 - 0.0 - - 10 - - - -
20/05:00pm 21.5 S 15 19 1018.0 - 0.0 - - 10 - - - -
20/04:30pm 21.9 S 14 18 1017.9 - 0.0 - - 10 - - - -
20/04:00pm 22.0 S 15 19 1017.8 - 0.0 - - 10 - - - -
20/03:30pm 22.0 S 15 20 1017.8 - 0.0 - - 10 - - - -
20/03:00pm 21.7 S 15 20 1017.9 - 0.0 - - 10 - - - -
20/02:30pm 22.0 S 15 20 1018.0 - 0.0 - - 10 - - - -
20/02:00pm 22.2 S 16 20 1017.8 - 0.0 - - 10 - - - -
20/01:30pm 21.9 SSW 15 19 1018.0 - 0.0 - - 10 - - - -
20/01:00pm 22.4 S 15 19 1018.3 - 0.0 - - 10 - - - -
20/12:30pm 21.8 S 15 18 1018.9 - 0.0 - - 10 - - - -
20/12:00pm 22.2 S 15 18 1019.5 - 0.0 - - 10 - - - -
20/11:30am 21.5 SSW 10 12 1019.8 - 0.0 - - 10 - - - -
20/11:00am 22.3 SSW 11 13 1020.2 - 0.0 - - 10 - - - -
20/10:30am 23.4 ESE 9 12 1020.2 - 0.0 - - 10 - - - -
20/10:00am 22.0 E 9 12 1020.4 - 0.0 - - 10 - - - -
20/09:30am 20.2 E 11 14 1020.5 - 0.0 - - 10 - - - -
20/09:00am 18.7 E 11 14 1020.4 - 0.0 - - 10 - - - -
20/08:30am 17.1 ESE 9 12 1020.3 - 0.0 - - 10 - - - -
20/08:00am 14.9 ESE 7 9 1019.9 - 0.0 - - 10 - - - -
20/07:30am 13.0 ESE 6 8 1019.5 - 0.0 - - 10 - - - -
20/07:00am 12.5 ESE 6 8 1019.2 - 0.0 - - 10 - - - -
20/06:30am 12.8 ESE 6 7 1019.1 - 0.0 - - 10 - - - -
20/06:00am 13.0 SE 6 7 1018.8 - 0.0 - - 10 - - - -
20/05:30am 13.6 SE 6 8 1018.6 - 0.0 - - 10 - - - -
20/05:00am 13.8 SE 7 9 1018.4 - 0.0 - - 10 - - - -
20/04:30am 14.2 SE 6 8 1018.6 - 0.0 - - 10 - - - -
20/04:00am 14.4 SE 7 8 1018.5 - 0.0 - - 10 - - - -
20/03:30am 15.0 SE 7 10 1018.6 - 0.0 - - 10 - - - -

Other Formats:

Comma delimited format used in spreadsheet applications
http://www.bom.gov.au/fwo/IDW60701/IDW60701.94300.axf

JavaScript Object Notation format (JSON) in row-major order
http://www.bom.gov.au/fwo/IDW60701/IDW60701.94300.json